sensor_id;sensor_type;location;lat;lon;timestamp;temperature;humidity
37240;DHT22;23130;48.760;9.178;2023-06-22T00:00:48;20.00;99.90
37240;DHT22;23130;48.760;9.178;2023-06-22T00:03:14;20.00;99.90
37240;DHT22;23130;48.760;9.178;2023-06-22T00:05:39;19.90;99.90
37240;DHT22;23130;48.760;9.178;2023-06-22T00:08:05;19.90;99.90
37240;DHT22;23130;48.760;9.178;2023-06-22T00:10:31;19.90;99.90
37240;DHT22;23130;48.760;9.178;2023-06-22T00:12:56;19.90;99.90
37240;DHT22;23130;48.760;9.178;2023-06-22T00:15:22;19.90;99.90
37240;DHT22;23130;48.760;9.178;2023-06-22T00:17:49;19.90;99.90
37240;DHT22;23130;48.760;9.178;2023-06-22T00:20:14;20.00;99.90
37240;DHT22;23130;48.760;9.178;2023-06-22T00:22:40;20.10;99.90
37240;DHT22;23130;48.760;9.178;2023-06-22T00:25:07;20.00;99.90
37240;DHT22;23130;48.760;9.178;2023-06-22T00:27:32;19.90;99.90
37240;DHT22;23130;48.760;9.178;2023-06-22T00:29:58;19.90;99.90
37240;DHT22;23130;48.760;9.178;2023-06-22T00:32:24;19.90;99.90
37240;DHT22;23130;48.760;9.178;2023-06-22T00:34:49;19.80;99.90
37240;DHT22;23130;48.760;9.178;2023-06-22T00:37:15;20.00;99.90
37240;DHT22;23130;48.760;9.178;2023-06-22T00:39:42;19.90;99.90
37240;DHT22;23130;48.760;9.178;2023-06-22T00:42:08;20.00;99.90
37240;DHT22;23130;48.760;9.178;2023-06-22T00:44:35;20.10;99.90
37240;DHT22;23130;48.760;9.178;2023-06-22T00:47:01;20.10;99.90
37240;DHT22;23130;48.760;9.178;2023-06-22T00:49:27;20.10;99.90
37240;DHT22;23130;48.760;9.178;2023-06-22T00:51:52;20.10;99.90
37240;DHT22;23130;48.760;9.178;2023-06-22T00:54:18;20.00;99.90
37240;DHT22;23130;48.760;9.178;2023-06-22T00:56:53;20.00;99.90
37240;DHT22;23130;48.760;9.178;2023-06-22T00:59:20;19.90;99.90
37240;DHT22;23130;48.760;9.178;2023-06-22T01:01:46;19.80;99.90
37240;DHT22;23130;48.760;9.178;2023-06-22T01:04:12;19.70;99.90
37240;DHT22;23130;48.760;9.178;2023-06-22T01:07:07;19.70;99.90
37240;DHT22;23130;48.760;9.178;2023-06-22T01:09:58;19.60;99.90
37240;DHT22;23130;48.760;9.178;2023-06-22T01:12:28;19.50;99.90
37240;DHT22;23130;48.760;9.178;2023-06-22T01:15:09;19.50;99.90
37240;DHT22;23130;48.760;9.178;2023-06-22T01:17:36;19.40;99.90
37240;DHT22;23130;48.760;9.178;2023-06-22T01:20:05;19.40;99.90
37240;DHT22;23130;48.760;9.178;2023-06-22T01:22:36;19.40;99.90
37240;DHT22;23130;48.760;9.178;2023-06-22T01:25:13;19.30;99.90
37240;DHT22;23130;48.760;9.178;2023-06-22T01:28:20;19.30;99.90
37240;DHT22;23130;48.760;9.178;2023-06-22T01:30:51;19.20;99.90
37240;DHT22;23130;48.760;9.178;2023-06-22T01:33:29;19.20;99.90
37240;DHT22;23130;48.760;9.178;2023-06-22T01:35:56;19.10;99.90
37240;DHT22;23130;48.760;9.178;2023-06-22T01:38:22;19.00;99.90
37240;DHT22;23130;48.760;9.178;2023-06-22T01:40:48;19.10;99.90
37240;DHT22;23130;48.760;9.178;2023-06-22T01:43:15;19.00;99.90
37240;DHT22;23130;48.760;9.178;2023-06-22T01:45:41;19.10;99.90
37240;DHT22;23130;48.760;9.178;2023-06-22T01:48:07;19.10;99.90
37240;DHT22;23130;48.760;9.178;2023-06-22T01:50:33;19.00;99.90
37240;DHT22;23130;48.760;9.178;2023-06-22T01:52:58;19.00;99.90
37240;DHT22;23130;48.760;9.178;2023-06-22T01:55:24;19.10;99.90
37240;DHT22;23130;48.760;9.178;2023-06-22T01:57:50;19.00;99.90
37240;DHT22;23130;48.760;9.178;2023-06-22T02:00:19;19.00;99.90
37240;DHT22;23130;48.760;9.178;2023-06-22T02:03:03;19.00;99.90
37240;DHT22;23130;48.760;9.178;2023-06-22T02:05:48;19.00;99.90
37240;DHT22;23130;48.760;9.178;2023-06-22T02:08:23;18.90;99.90
37240;DHT22;23130;48.760;9.178;2023-06-22T02:10:51;18.80;99.90
37240;DHT22;23130;48.760;9.178;2023-06-22T02:13:18;18.70;99.90
37240;DHT22;23130;48.760;9.178;2023-06-22T02:15:45;18.70;99.90
37240;DHT22;23130;48.760;9.178;2023-06-22T02:18:12;18.70;99.90
37240;DHT22;23130;48.760;9.178;2023-06-22T02:20:38;18.70;99.90
37240;DHT22;23130;48.760;9.178;2023-06-22T02:23:05;18.70;99.90
37240;DHT22;23130;48.760;9.178;2023-06-22T02:25:31;18.80;99.90
37240;DHT22;23130;48.760;9.178;2023-06-22T02:27:57;18.70;99.90
37240;DHT22;23130;48.760;9.178;2023-06-22T02:30:23;18.80;99.90
37240;DHT22;23130;48.760;9.178;2023-06-22T02:32:48;18.80;99.90
37240;DHT22;23130;48.760;9.178;2023-06-22T02:35:14;18.80;99.90
37240;DHT22;23130;48.760;9.178;2023-06-22T02:37:40;18.80;99.90
37240;DHT22;23130;48.760;9.178;2023-06-22T02:40:07;18.80;99.90
37240;DHT22;23130;48.760;9.178;2023-06-22T02:42:35;18.70;99.90
37240;DHT22;23130;48.760;9.178;2023-06-22T02:45:01;18.60;99.90
37240;DHT22;23130;48.760;9.178;2023-06-22T02:47:26;18.60;99.90
37240;DHT22;23130;48.760;9.178;2023-06-22T02:49:52;18.60;99.90
37240;DHT22;23130;48.760;9.178;2023-06-22T02:52:18;18.50;99.90
37240;DHT22;23130;48.760;9.178;2023-06-22T02:54:43;18.50;99.90
37240;DHT22;23130;48.760;9.178;2023-06-22T02:57:11;18.50;99.90
37240;DHT22;23130;48.760;9.178;2023-06-22T02:59:42;18.40;99.90
37240;DHT22;23130;48.760;9.178;2023-06-22T03:02:08;18.40;99.90
37240;DHT22;23130;48.760;9.178;2023-06-22T03:04:35;18.40;99.90
37240;DHT22;23130;48.760;9.178;2023-06-22T03:07:01;18.40;99.90
37240;DHT22;23130;48.760;9.178;2023-06-22T03:09:27;18.30;99.90
37240;DHT22;23130;48.760;9.178;2023-06-22T03:11:56;18.20;99.90
37240;DHT22;23130;48.760;9.178;2023-06-22T03:14:21;18.20;99.90
37240;DHT22;23130;48.760;9.178;2023-06-22T03:16:47;18.10;99.90
37240;DHT22;23130;48.760;9.178;2023-06-22T03:19:13;18.10;99.90
37240;DHT22;23130;48.760;9.178;2023-06-22T03:21:39;18.10;99.90
37240;DHT22;23130;48.760;9.178;2023-06-22T03:24:06;18.00;99.90
37240;DHT22;23130;48.760;9.178;2023-06-22T03:26:33;18.10;99.90
37240;DHT22;23130;48.760;9.178;2023-06-22T03:28:58;18.20;99.90
37240;DHT22;23130;48.760;9.178;2023-06-22T03:31:24;18.10;99.90
37240;DHT22;23130;48.760;9.178;2023-06-22T03:33:50;18.20;99.90
37240;DHT22;23130;48.760;9.178;2023-06-22T03:36:16;18.20;99.90
37240;DHT22;23130;48.760;9.178;2023-06-22T03:38:46;18.20;99.90
37240;DHT22;23130;48.760;9.178;2023-06-22T03:41:11;18.20;99.90
37240;DHT22;23130;48.760;9.178;2023-06-22T03:43:37;18.30;99.90
37240;DHT22;23130;48.760;9.178;2023-06-22T03:46:03;18.30;99.90
37240;DHT22;23130;48.760;9.178;2023-06-22T03:48:28;18.40;99.90
37240;DHT22;23130;48.760;9.178;2023-06-22T03:50:54;18.40;99.90
37240;DHT22;23130;48.760;9.178;2023-06-22T03:53:19;18.50;99.90
37240;DHT22;23130;48.760;9.178;2023-06-22T03:55:52;18.60;99.90
37240;DHT22;23130;48.760;9.178;2023-06-22T03:58:21;18.70;99.90
37240;DHT22;23130;48.760;9.178;2023-06-22T04:00:51;18.80;99.90
37240;DHT22;23130;48.760;9.178;2023-06-22T04:03:17;19.00;99.90
37240;DHT22;23130;48.760;9.178;2023-06-22T04:05:44;19.20;99.90
37240;DHT22;23130;48.760;9.178;2023-06-22T04:08:10;19.40;99.90
37240;DHT22;23130;48.760;9.178;2023-06-22T04:10:36;19.60;99.90
37240;DHT22;23130;48.760;9.178;2023-06-22T04:13:01;19.80;99.90
37240;DHT22;23130;48.760;9.178;2023-06-22T04:15:27;20.00;99.90
37240;DHT22;23130;48.760;9.178;2023-06-22T04:17:54;20.20;99.90
37240;DHT22;23130;48.760;9.178;2023-06-22T04:20:20;20.50;99.90
37240;DHT22;23130;48.760;9.178;2023-06-22T04:22:46;21.00;99.90
37240;DHT22;23130;48.760;9.178;2023-06-22T04:25:11;21.70;99.90
37240;DHT22;23130;48.760;9.178;2023-06-22T04:27:37;22.40;99.90
37240;DHT22;23130;48.760;9.178;2023-06-22T04:30:08;22.90;99.90
37240;DHT22;23130;48.760;9.178;2023-06-22T04:32:34;23.60;99.90
37240;DHT22;23130;48.760;9.178;2023-06-22T04:35:04;24.00;99.90
37240;DHT22;23130;48.760;9.178;2023-06-22T04:37:31;24.50;99.90
37240;DHT22;23130;48.760;9.178;2023-06-22T04:39:57;24.60;99.90
37240;DHT22;23130;48.760;9.178;2023-06-22T04:42:24;25.00;99.90
37240;DHT22;23130;48.760;9.178;2023-06-22T04:44:50;25.30;99.90
37240;DHT22;23130;48.760;9.178;2023-06-22T04:47:15;25.60;99.90
37240;DHT22;23130;48.760;9.178;2023-06-22T04:49:41;25.90;99.90
37240;DHT22;23130;48.760;9.178;2023-06-22T04:52:10;26.20;99.90
37240;DHT22;23130;48.760;9.178;2023-06-22T04:54:37;26.10;99.90
37240;DHT22;23130;48.760;9.178;2023-06-22T04:57:05;26.60;99.90
37240;DHT22;23130;48.760;9.178;2023-06-22T04:59:36;26.70;99.90
37240;DHT22;23130;48.760;9.178;2023-06-22T05:02:02;26.50;99.90
37240;DHT22;23130;48.760;9.178;2023-06-22T05:04:29;26.90;99.90
37240;DHT22;23130;48.760;9.178;2023-06-22T05:06:59;27.60;99.90
37240;DHT22;23130;48.760;9.178;2023-06-22T05:09:25;27.70;99.90
37240;DHT22;23130;48.760;9.178;2023-06-22T05:11:51;28.30;99.90
37240;DHT22;23130;48.760;9.178;2023-06-22T05:14:17;28.40;99.90
37240;DHT22;23130;48.760;9.178;2023-06-22T05:16:44;28.70;99.90
37240;DHT22;23130;48.760;9.178;2023-06-22T05:19:10;28.80;99.90
37240;DHT22;23130;48.760;9.178;2023-06-22T05:21:36;29.50;99.90
37240;DHT22;23130;48.760;9.178;2023-06-22T05:24:02;29.60;99.90
37240;DHT22;23130;48.760;9.178;2023-06-22T05:26:32;29.40;99.90
37240;DHT22;23130;48.760;9.178;2023-06-22T05:28:59;28.90;99.90
37240;DHT22;23130;48.760;9.178;2023-06-22T05:31:26;29.10;99.90
37240;DHT22;23130;48.760;9.178;2023-06-22T05:33:53;29.40;99.90
37240;DHT22;23130;48.760;9.178;2023-06-22T05:36:18;29.60;99.90
37240;DHT22;23130;48.760;9.178;2023-06-22T05:38:51;30.30;99.90
37240;DHT22;23130;48.760;9.178;2023-06-22T05:41:17;30.70;99.90
37240;DHT22;23130;48.760;9.178;2023-06-22T05:43:43;30.80;99.90
37240;DHT22;23130;48.760;9.178;2023-06-22T05:46:08;31.00;99.90
37240;DHT22;23130;48.760;9.178;2023-06-22T05:48:34;30.40;99.90
37240;DHT22;23130;48.760;9.178;2023-06-22T05:50:59;30.30;99.90
37240;DHT22;23130;48.760;9.178;2023-06-22T05:53:25;30.50;99.90
37240;DHT22;23130;48.760;9.178;2023-06-22T05:55:51;30.60;99.90
37240;DHT22;23130;48.760;9.178;2023-06-22T05:58:17;30.50;99.90
37240;DHT22;23130;48.760;9.178;2023-06-22T06:00:43;30.70;99.90
37240;DHT22;23130;48.760;9.178;2023-06-22T06:03:09;30.20;99.90
37240;DHT22;23130;48.760;9.178;2023-06-22T06:05:35;30.10;99.90
37240;DHT22;23130;48.760;9.178;2023-06-22T06:08:03;29.80;99.90
37240;DHT22;23130;48.760;9.178;2023-06-22T06:10:30;29.30;99.90
37240;DHT22;23130;48.760;9.178;2023-06-22T06:12:56;28.50;99.90
37240;DHT22;23130;48.760;9.178;2023-06-22T06:15:22;28.30;99.90
37240;DHT22;23130;48.760;9.178;2023-06-22T06:17:52;27.90;99.90
37240;DHT22;23130;48.760;9.178;2023-06-22T06:20:23;28.00;99.90
37240;DHT22;23130;48.760;9.178;2023-06-22T06:22:50;28.50;99.90
37240;DHT22;23130;48.760;9.178;2023-06-22T06:25:16;29.00;99.90
37240;DHT22;23130;48.760;9.178;2023-06-22T06:27:44;29.50;99.90
37240;DHT22;23130;48.760;9.178;2023-06-22T06:30:15;30.40;99.90
37240;DHT22;23130;48.760;9.178;2023-06-22T06:32:41;30.90;99.90
37240;DHT22;23130;48.760;9.178;2023-06-22T06:35:10;31.10;99.90
37240;DHT22;23130;48.760;9.178;2023-06-22T06:37:37;31.50;99.90
37240;DHT22;23130;48.760;9.178;2023-06-22T06:40:07;31.90;99.90
37240;DHT22;23130;48.760;9.178;2023-06-22T06:42:40;32.40;99.90
37240;DHT22;23130;48.760;9.178;2023-06-22T06:47:41;32.70;98.90
37240;DHT22;23130;48.760;9.178;2023-06-22T06:50:08;32.50;98.90
37240;DHT22;23130;48.760;9.178;2023-06-22T06:52:33;32.80;98.70
37240;DHT22;23130;48.760;9.178;2023-06-22T06:55:00;33.00;98.50
37240;DHT22;23130;48.760;9.178;2023-06-22T06:57:26;33.10;97.70
37240;DHT22;23130;48.760;9.178;2023-06-22T06:59:56;33.00;97.70
37240;DHT22;23130;48.760;9.178;2023-06-22T07:02:22;33.10;97.60
37240;DHT22;23130;48.760;9.178;2023-06-22T07:04:48;33.10;97.60
37240;DHT22;23130;48.760;9.178;2023-06-22T07:07:14;33.40;97.00
37240;DHT22;23130;48.760;9.178;2023-06-22T07:09:40;33.50;97.20
37240;DHT22;23130;48.760;9.178;2023-06-22T07:12:06;33.40;96.80
37240;DHT22;23130;48.760;9.178;2023-06-22T07:14:31;33.30;96.80
37240;DHT22;23130;48.760;9.178;2023-06-22T07:16:57;33.50;96.50
37240;DHT22;23130;48.760;9.178;2023-06-22T07:19:27;33.00;96.80
37240;DHT22;23130;48.760;9.178;2023-06-22T07:21:53;32.80;97.10
37240;DHT22;23130;48.760;9.178;2023-06-22T07:24:22;32.60;97.30
37240;DHT22;23130;48.760;9.178;2023-06-22T07:26:49;32.80;97.00
37240;DHT22;23130;48.760;9.178;2023-06-22T07:29:17;33.00;97.00
37240;DHT22;23130;48.760;9.178;2023-06-22T07:31:43;33.00;96.90
37240;DHT22;23130;48.760;9.178;2023-06-22T07:34:09;33.30;96.70
37240;DHT22;23130;48.760;9.178;2023-06-22T07:36:34;33.40;96.70
37240;DHT22;23130;48.760;9.178;2023-06-22T07:39:04;33.80;95.50
37240;DHT22;23130;48.760;9.178;2023-06-22T07:41:30;33.20;95.90
37240;DHT22;23130;48.760;9.178;2023-06-22T07:43:56;33.40;96.20
37240;DHT22;23130;48.760;9.178;2023-06-22T07:46:23;33.30;95.70
37240;DHT22;23130;48.760;9.178;2023-06-22T07:48:48;33.50;96.00
37240;DHT22;23130;48.760;9.178;2023-06-22T07:51:14;33.60;95.50
37240;DHT22;23130;48.760;9.178;2023-06-22T07:53:44;33.40;95.10
37240;DHT22;23130;48.760;9.178;2023-06-22T07:56:14;33.50;95.80
37240;DHT22;23130;48.760;9.178;2023-06-22T07:58:44;33.50;95.20
37240;DHT22;23130;48.760;9.178;2023-06-22T08:01:10;33.40;95.00
37240;DHT22;23130;48.760;9.178;2023-06-22T08:03:36;33.30;95.60
37240;DHT22;23130;48.760;9.178;2023-06-22T08:06:02;33.50;94.90
37240;DHT22;23130;48.760;9.178;2023-06-22T08:08:28;33.40;95.30
37240;DHT22;23130;48.760;9.178;2023-06-22T08:10:53;33.60;94.70
37240;DHT22;23130;48.760;9.178;2023-06-22T08:13:19;33.60;94.90
37240;DHT22;23130;48.760;9.178;2023-06-22T08:15:44;33.90;94.50
37240;DHT22;23130;48.760;9.178;2023-06-22T08:18:10;34.00;94.50
37240;DHT22;23130;48.760;9.178;2023-06-22T08:20:35;33.50;94.30
37240;DHT22;23130;48.760;9.178;2023-06-22T08:23:01;32.90;95.00
37240;DHT22;23130;48.760;9.178;2023-06-22T08:25:32;32.10;95.70
37240;DHT22;23130;48.760;9.178;2023-06-22T08:27:58;32.00;95.90
37240;DHT22;23130;48.760;9.178;2023-06-22T08:30:25;31.90;96.20
37240;DHT22;23130;48.760;9.178;2023-06-22T08:32:51;31.90;97.10
37240;DHT22;23130;48.760;9.178;2023-06-22T08:35:16;31.80;97.00
37240;DHT22;23130;48.760;9.178;2023-06-22T08:37:42;31.80;96.70
37240;DHT22;23130;48.760;9.178;2023-06-22T08:40:09;32.20;96.50
37240;DHT22;23130;48.760;9.178;2023-06-22T08:42:36;32.50;96.20
37240;DHT22;23130;48.760;9.178;2023-06-22T08:45:02;32.50;96.20
37240;DHT22;23130;48.760;9.178;2023-06-22T08:47:28;32.30;97.00
37240;DHT22;23130;48.760;9.178;2023-06-22T08:49:54;32.50;96.10
37240;DHT22;23130;48.760;9.178;2023-06-22T08:52:20;32.40;95.70
37240;DHT22;23130;48.760;9.178;2023-06-22T08:54:48;32.00;96.40
37240;DHT22;23130;48.760;9.178;2023-06-22T08:57:14;32.10;96.20
37240;DHT22;23130;48.760;9.178;2023-06-22T08:59:40;32.40;97.30
37240;DHT22;23130;48.760;9.178;2023-06-22T09:02:06;32.30;96.20
37240;DHT22;23130;48.760;9.178;2023-06-22T09:04:31;32.20;96.40
37240;DHT22;23130;48.760;9.178;2023-06-22T09:07:00;32.20;97.30
37240;DHT22;23130;48.760;9.178;2023-06-22T09:09:26;32.20;97.10
37240;DHT22;23130;48.760;9.178;2023-06-22T09:11:51;32.10;97.10
37240;DHT22;23130;48.760;9.178;2023-06-22T09:14:17;31.90;97.20
37240;DHT22;23130;48.760;9.178;2023-06-22T09:16:45;31.90;96.50
37240;DHT22;23130;48.760;9.178;2023-06-22T09:19:14;32.10;96.70
37240;DHT22;23130;48.760;9.178;2023-06-22T09:21:40;32.30;96.70
37240;DHT22;23130;48.760;9.178;2023-06-22T09:24:05;32.50;96.40
37240;DHT22;23130;48.760;9.178;2023-06-22T09:26:31;32.60;96.70
37240;DHT22;23130;48.760;9.178;2023-06-22T09:28:57;32.70;96.20
37240;DHT22;23130;48.760;9.178;2023-06-22T09:31:23;32.80;97.60
37240;DHT22;23130;48.760;9.178;2023-06-22T09:33:55;32.90;95.90
37240;DHT22;23130;48.760;9.178;2023-06-22T09:36:23;32.50;95.80
37240;DHT22;23130;48.760;9.178;2023-06-22T09:38:49;32.50;95.80
37240;DHT22;23130;48.760;9.178;2023-06-22T09:41:21;32.30;96.50
37240;DHT22;23130;48.760;9.178;2023-06-22T09:43:47;31.80;97.20
37240;DHT22;23130;48.760;9.178;2023-06-22T09:46:16;31.70;96.90
37240;DHT22;23130;48.760;9.178;2023-06-22T09:48:42;31.80;97.00
37240;DHT22;23130;48.760;9.178;2023-06-22T09:51:07;31.70;96.80
37240;DHT22;23130;48.760;9.178;2023-06-22T09:53:33;31.40;97.00
37240;DHT22;23130;48.760;9.178;2023-06-22T09:56:03;31.40;96.80
37240;DHT22;23130;48.760;9.178;2023-06-22T09:58:31;31.60;97.40
37240;DHT22;23130;48.760;9.178;2023-06-22T10:00:57;31.80;96.90
37240;DHT22;23130;48.760;9.178;2023-06-22T10:03:22;32.20;96.80
37240;DHT22;23130;48.760;9.178;2023-06-22T10:05:48;32.30;96.20
37240;DHT22;23130;48.760;9.178;2023-06-22T10:08:13;32.10;97.10
37240;DHT22;23130;48.760;9.178;2023-06-22T10:10:39;32.30;97.00
37240;DHT22;23130;48.760;9.178;2023-06-22T10:13:09;32.40;96.60
37240;DHT22;23130;48.760;9.178;2023-06-22T10:15:38;32.60;96.80
37240;DHT22;23130;48.760;9.178;2023-06-22T10:18:04;32.60;96.20
37240;DHT22;23130;48.760;9.178;2023-06-22T10:20:30;32.50;96.00
37240;DHT22;23130;48.760;9.178;2023-06-22T10:22:56;32.50;96.20
37240;DHT22;23130;48.760;9.178;2023-06-22T10:25:21;32.50;96.00
37240;DHT22;23130;48.760;9.178;2023-06-22T10:27:47;32.60;96.90
37240;DHT22;23130;48.760;9.178;2023-06-22T10:30:13;32.60;96.00
37240;DHT22;23130;48.760;9.178;2023-06-22T10:32:39;32.80;96.40
37240;DHT22;23130;48.760;9.178;2023-06-22T10:35:09;33.20;96.50
37240;DHT22;23130;48.760;9.178;2023-06-22T10:37:36;33.80;96.20
37240;DHT22;23130;48.760;9.178;2023-06-22T10:40:02;34.10;95.70
37240;DHT22;23130;48.760;9.178;2023-06-22T10:42:29;34.10;95.40
37240;DHT22;23130;48.760;9.178;2023-06-22T10:44:55;34.10;95.00
37240;DHT22;23130;48.760;9.178;2023-06-22T10:47:20;34.00;95.60
37240;DHT22;23130;48.760;9.178;2023-06-22T10:49:46;34.00;95.50
37240;DHT22;23130;48.760;9.178;2023-06-22T10:52:11;33.80;94.80
37240;DHT22;23130;48.760;9.178;2023-06-22T10:54:37;33.80;95.20
37240;DHT22;23130;48.760;9.178;2023-06-22T10:57:03;33.70;94.50
37240;DHT22;23130;48.760;9.178;2023-06-22T10:59:29;33.50;95.50
37240;DHT22;23130;48.760;9.178;2023-06-22T11:01:58;33.40;94.90
37240;DHT22;23130;48.760;9.178;2023-06-22T11:04:24;33.10;95.70
37240;DHT22;23130;48.760;9.178;2023-06-22T11:06:50;33.00;96.20
37240;DHT22;23130;48.760;9.178;2023-06-22T11:09:16;32.70;96.20
37240;DHT22;23130;48.760;9.178;2023-06-22T11:11:49;32.70;96.20
37240;DHT22;23130;48.760;9.178;2023-06-22T11:14:15;32.80;97.10
37240;DHT22;23130;48.760;9.178;2023-06-22T11:16:40;32.60;96.70
37240;DHT22;23130;48.760;9.178;2023-06-22T11:19:06;32.80;96.40
37240;DHT22;23130;48.760;9.178;2023-06-22T11:21:32;32.80;96.00
37240;DHT22;23130;48.760;9.178;2023-06-22T11:24:00;32.90;95.00
37240;DHT22;23130;48.760;9.178;2023-06-22T11:26:26;32.70;95.60
37240;DHT22;23130;48.760;9.178;2023-06-22T11:28:53;32.40;95.30
37240;DHT22;23130;48.760;9.178;2023-06-22T11:31:18;32.50;95.80
37240;DHT22;23130;48.760;9.178;2023-06-22T11:33:44;32.60;97.00
37240;DHT22;23130;48.760;9.178;2023-06-22T11:36:14;32.70;96.80
37240;DHT22;23130;48.760;9.178;2023-06-22T11:38:39;32.80;96.10
37240;DHT22;23130;48.760;9.178;2023-06-22T11:41:06;33.00;96.80
37240;DHT22;23130;48.760;9.178;2023-06-22T11:43:32;33.60;96.10
37240;DHT22;23130;48.760;9.178;2023-06-22T11:45:57;34.10;96.00
37240;DHT22;23130;48.760;9.178;2023-06-22T11:48:26;34.50;95.40
37240;DHT22;23130;48.760;9.178;2023-06-22T11:50:52;34.80;95.70
37240;DHT22;23130;48.760;9.178;2023-06-22T11:53:18;34.80;95.40
37240;DHT22;23130;48.760;9.178;2023-06-22T11:55:44;34.40;95.30
37240;DHT22;23130;48.760;9.178;2023-06-22T11:58:10;34.60;95.30
37240;DHT22;23130;48.760;9.178;2023-06-22T12:00:37;34.40;95.50
37240;DHT22;23130;48.760;9.178;2023-06-22T12:03:03;34.20;95.40
37240;DHT22;23130;48.760;9.178;2023-06-22T12:05:28;33.90;95.20
37240;DHT22;23130;48.760;9.178;2023-06-22T12:07:54;33.70;95.90
37240;DHT22;23130;48.760;9.178;2023-06-22T12:10:24;33.30;95.80
37240;DHT22;23130;48.760;9.178;2023-06-22T12:12:50;33.50;95.50
37240;DHT22;23130;48.760;9.178;2023-06-22T12:15:16;33.40;96.00
37240;DHT22;23130;48.760;9.178;2023-06-22T12:17:42;33.30;96.20
37240;DHT22;23130;48.760;9.178;2023-06-22T12:20:08;33.40;95.90
37240;DHT22;23130;48.760;9.178;2023-06-22T12:22:35;33.20;95.70
37240;DHT22;23130;48.760;9.178;2023-06-22T12:25:03;33.00;96.20
37240;DHT22;23130;48.760;9.178;2023-06-22T12:27:29;33.20;97.10
37240;DHT22;23130;48.760;9.178;2023-06-22T12:29:56;33.10;95.90
37240;DHT22;23130;48.760;9.178;2023-06-22T12:32:21;33.30;96.40
37240;DHT22;23130;48.760;9.178;2023-06-22T12:34:47;33.40;96.80
37240;DHT22;23130;48.760;9.178;2023-06-22T12:37:13;33.10;95.60
37240;DHT22;23130;48.760;9.178;2023-06-22T12:39:40;33.10;96.90
37240;DHT22;23130;48.760;9.178;2023-06-22T12:42:06;32.80;96.90
37240;DHT22;23130;48.760;9.178;2023-06-22T12:44:34;32.40;97.00
37240;DHT22;23130;48.760;9.178;2023-06-22T12:47:00;32.10;97.40
37240;DHT22;23130;48.760;9.178;2023-06-22T12:49:25;32.20;96.80
37240;DHT22;23130;48.760;9.178;2023-06-22T12:51:51;32.20;97.00
37240;DHT22;23130;48.760;9.178;2023-06-22T12:54:16;32.10;98.10
37240;DHT22;23130;48.760;9.178;2023-06-22T12:56:42;32.10;97.60
37240;DHT22;23130;48.760;9.178;2023-06-22T12:59:10;31.90;98.00
37240;DHT22;23130;48.760;9.178;2023-06-22T13:01:36;31.80;98.00
37240;DHT22;23130;48.760;9.178;2023-06-22T13:04:03;31.50;98.30
37240;DHT22;23130;48.760;9.178;2023-06-22T13:06:28;31.60;98.40
37240;DHT22;23130;48.760;9.178;2023-06-22T13:08:54;31.60;98.00
37240;DHT22;23130;48.760;9.178;2023-06-22T13:11:20;31.70;98.60
37240;DHT22;23130;48.760;9.178;2023-06-22T13:13:46;31.80;99.10
37240;DHT22;23130;48.760;9.178;2023-06-22T13:16:12;31.70;99.30
37240;DHT22;23130;48.760;9.178;2023-06-22T13:18:38;31.70;99.30
37240;DHT22;23130;48.760;9.178;2023-06-22T13:21:04;31.80;99.20
37240;DHT22;23130;48.760;9.178;2023-06-22T13:23:30;32.00;98.30
37240;DHT22;23130;48.760;9.178;2023-06-22T13:25:57;32.20;98.00
37240;DHT22;23130;48.760;9.178;2023-06-22T13:28:22;32.50;98.20
37240;DHT22;23130;48.760;9.178;2023-06-22T13:30:48;32.90;97.20
37240;DHT22;23130;48.760;9.178;2023-06-22T13:33:14;33.10;97.20
37240;DHT22;23130;48.760;9.178;2023-06-22T13:35:40;33.20;96.50
37240;DHT22;23130;48.760;9.178;2023-06-22T13:38:10;33.40;96.20
37240;DHT22;23130;48.760;9.178;2023-06-22T13:40:37;33.50;96.10
37240;DHT22;23130;48.760;9.178;2023-06-22T13:43:05;33.70;96.20
37240;DHT22;23130;48.760;9.178;2023-06-22T13:45:32;33.80;96.70
37240;DHT22;23130;48.760;9.178;2023-06-22T13:47:58;33.90;97.70
37240;DHT22;23130;48.760;9.178;2023-06-22T13:50:23;33.90;97.60
37240;DHT22;23130;48.760;9.178;2023-06-22T13:52:49;33.90;96.40
37240;DHT22;23130;48.760;9.178;2023-06-22T13:55:15;33.90;96.20
37240;DHT22;23130;48.760;9.178;2023-06-22T13:57:43;34.00;96.00
37240;DHT22;23130;48.760;9.178;2023-06-22T14:00:09;34.00;95.70
37240;DHT22;23130;48.760;9.178;2023-06-22T14:02:35;33.90;96.40
37240;DHT22;23130;48.760;9.178;2023-06-22T14:05:01;34.00;96.00
37240;DHT22;23130;48.760;9.178;2023-06-22T14:07:27;33.70;95.60
37240;DHT22;23130;48.760;9.178;2023-06-22T14:09:53;34.00;95.10
37240;DHT22;23130;48.760;9.178;2023-06-22T14:12:19;34.20;94.80
37240;DHT22;23130;48.760;9.178;2023-06-22T14:14:44;34.50;94.80
37240;DHT22;23130;48.760;9.178;2023-06-22T14:17:10;34.90;95.10
37240;DHT22;23130;48.760;9.178;2023-06-22T14:19:36;35.30;93.60
37240;DHT22;23130;48.760;9.178;2023-06-22T14:22:02;35.50;92.70
37240;DHT22;23130;48.760;9.178;2023-06-22T14:24:28;35.40;92.80
37240;DHT22;23130;48.760;9.178;2023-06-22T14:26:54;35.20;92.00
37240;DHT22;23130;48.760;9.178;2023-06-22T14:29:20;35.00;91.20
37240;DHT22;23130;48.760;9.178;2023-06-22T14:31:48;34.70;91.70
37240;DHT22;23130;48.760;9.178;2023-06-22T14:34:14;34.50;91.60
37240;DHT22;23130;48.760;9.178;2023-06-22T14:36:40;34.30;91.70
37240;DHT22;23130;48.760;9.178;2023-06-22T14:39:06;34.30;90.70
37240;DHT22;23130;48.760;9.178;2023-06-22T14:41:31;34.40;90.20
37240;DHT22;23130;48.760;9.178;2023-06-22T14:43:57;34.60;90.30
37240;DHT22;23130;48.760;9.178;2023-06-22T14:46:23;35.00;90.10
37240;DHT22;23130;48.760;9.178;2023-06-22T14:48:49;35.00;89.00
37240;DHT22;23130;48.760;9.178;2023-06-22T14:51:14;34.80;88.60
37240;DHT22;23130;48.760;9.178;2023-06-22T14:53:41;34.80;88.60
37240;DHT22;23130;48.760;9.178;2023-06-22T14:56:09;34.70;85.30
37240;DHT22;23130;48.760;9.178;2023-06-22T14:58:35;34.50;82.00
37240;DHT22;23130;48.760;9.178;2023-06-22T15:01:04;34.10;82.10
37240;DHT22;23130;48.760;9.178;2023-06-22T15:03:30;33.70;80.40
37240;DHT22;23130;48.760;9.178;2023-06-22T15:05:58;33.50;82.00
37240;DHT22;23130;48.760;9.178;2023-06-22T15:08:24;33.40;81.00
37240;DHT22;23130;48.760;9.178;2023-06-22T15:10:51;33.30;81.30
37240;DHT22;23130;48.760;9.178;2023-06-22T15:13:17;33.10;80.80
37240;DHT22;23130;48.760;9.178;2023-06-22T15:15:44;33.10;81.80
37240;DHT22;23130;48.760;9.178;2023-06-22T15:18:09;33.20;80.50
37240;DHT22;23130;48.760;9.178;2023-06-22T15:20:35;33.30;81.40
37240;DHT22;23130;48.760;9.178;2023-06-22T15:23:00;33.40;81.20
37240;DHT22;23130;48.760;9.178;2023-06-22T15:25:26;33.40;79.90
37240;DHT22;23130;48.760;9.178;2023-06-22T15:27:51;33.40;81.20
37240;DHT22;23130;48.760;9.178;2023-06-22T15:30:17;33.40;80.50